Time;durP1;ratioP1;P1;durP2;ratioP2;P2;SDS_P1;SDS_P2;PMS_P1;PMS_P2;Temp;Humidity;BMP_temperature;BMP_pressure;BME280_temperature;BME280_humidity;BME280_pressure;Samples;Min_cycle;Max_cycle;Signal;HPM_P1;HPM_P2
2023/10/14 00:01:31;;;;;;;3.70;3.10;;;;;;;;;;4871555;29;20068;-82
2023/10/14 00:04:04;;;;;;;3.90;2.67;;;;;;;;;;4872459;29;20045;-82
2023/10/14 00:06:34;;;;;;;4.47;2.72;;;;;;;;;;4887012;29;20052;-82
2023/10/14 00:09:12;;;;;;;9.85;3.72;;;;;;;;;;4870995;29;20072;-82
2023/10/14 00:11:43;;;;;;;4.97;3.05;;;;;;;;;;4868671;29;20056;-82
2023/10/14 00:14:15;;;;;;;11.75;4.22;;;;;;;;;;4887193;29;20056;-83
2023/10/14 00:16:49;;;;;;;5.05;2.80;;;;;;;;;;4886613;29;20060;-83
2023/10/14 00:19:18;;;;;;;6.53;3.28;;;;;;;;;;4878425;29;20056;-83
2023/10/14 00:21:46;;;;;;;10.80;5.63;;;;;;;;;;4885971;29;20057;-83
2023/10/14 00:24:26;;;;;;;;;;;;;;;;;;4891426;29;20500;-83
2023/10/14 00:26:53;;;;;;;5.25;3.15;;;;;;;;;;4886638;29;20466;-83
2023/10/14 00:29:23;;;;;;;12.25;3.17;;;;;;;;;;4886543;29;20113;-83
2023/10/14 00:31:52;;;;;;;6.03;3.20;;;;;;;;;;4884984;29;20052;-83
2023/10/14 00:34:25;;;;;;;4.97;3.20;;;;;;;;;;4869851;29;20122;-83
2023/10/14 00:36:55;;;;;;;4.20;3.55;;;;;;;;;;4891072;29;20053;-83
2023/10/14 00:39:27;;;;;;;8.80;3.22;;;;;;;;;;4900246;29;20061;-83
2023/10/14 00:41:58;;;;;;;7.10;3.15;;;;;;;;;;4886749;29;20060;-83
2023/10/14 00:44:26;;;;;;;16.65;4.18;;;;;;;;;;4872933;29;20058;-82
2023/10/14 00:46:55;;;;;;;9.85;4.53;;;;;;;;;;4885880;29;20405;-83
2023/10/14 00:49:28;;;;;;;10.38;4.28;;;;;;;;;;4870437;29;20068;-83
2023/10/14 00:51:59;;;;;;;4.47;3.47;;;;;;;;;;4869817;29;20041;-83
2023/10/14 00:54:36;;;;;;;6.43;4.05;;;;;;;;;;4868921;29;20072;-83
2023/10/14 00:57:10;;;;;;;9.15;4.05;;;;;;;;;;4882853;29;20049;-83
2023/10/14 00:59:40;;;;;;;12.90;4.53;;;;;;;;;;4866339;29;20543;-83
2023/10/14 01:02:10;;;;;;;5.90;4.18;;;;;;;;;;4866774;29;20064;-83
2023/10/14 01:04:40;;;;;;;7.45;4.25;;;;;;;;;;4888698;29;20056;-83
2023/10/14 01:07:13;;;;;;;9.75;3.95;;;;;;;;;;4885180;29;20064;-83
2023/10/14 01:09:52;;;;;;;7.15;4.47;;;;;;;;;;4884855;29;20053;-83
2023/10/14 01:12:26;;;;;;;7.15;4.50;;;;;;;;;;4883859;29;20049;-83
2023/10/14 01:14:59;;;;;;;5.28;4.72;;;;;;;;;;4879616;29;20060;-83
2023/10/14 01:17:29;;;;;;;5.35;4.45;;;;;;;;;;4880658;29;20064;-83
2023/10/14 01:20:06;;;;;;;;;;;;;;;;;;4867001;29;20072;-83
2023/10/14 01:22:34;;;;;;;;;;;;;;;;;;4881667;29;19931;-83
2023/10/14 01:25:05;;;;;;;7.78;3.33;;;;;;;;;;4879508;29;19923;-83
2023/10/14 01:27:35;;;;;;;7.07;4.45;;;;;;;;;;4870849;29;20048;-83
2023/10/14 01:30:11;;;;;;;4.38;3.55;;;;;;;;;;4895548;29;20060;-83
2023/10/14 01:32:48;;;;;;;5.78;4.10;;;;;;;;;;4864124;29;20057;-83
2023/10/14 01:35:24;;;;;;;7.50;4.00;;;;;;;;;;4865065;29;20049;-83
2023/10/14 01:37:54;;;;;;;7.30;4.05;;;;;;;;;;4880302;29;20040;-83
2023/10/14 01:40:32;;;;;;;7.38;3.55;;;;;;;;;;4873157;29;20060;-83
2023/10/14 01:43:06;;;;;;;6.75;4.07;;;;;;;;;;4864454;29;20120;-83
2023/10/14 01:45:42;;;;;;;6.07;4.18;;;;;;;;;;4889733;29;20543;-83
2023/10/14 01:48:19;;;;;;;5.90;3.65;;;;;;;;;;4993054;23;20053;-84
2023/10/14 01:50:50;;;;;;;7.75;4.65;;;;;;;;;;4878172;29;20056;-84
2023/10/14 01:53:21;;;;;;;7.18;4.60;;;;;;;;;;4873455;29;20053;-84
2023/10/14 01:55:50;;;;;;;7.13;4.50;;;;;;;;;;4870002;29;20055;-84
2023/10/14 01:58:29;;;;;;;4.97;4.03;;;;;;;;;;4859166;29;20050;-84
2023/10/14 02:01:04;;;;;;;6.97;4.35;;;;;;;;;;4841741;29;20068;-84
2023/10/14 02:03:41;;;;;;;8.98;3.97;;;;;;;;;;4841581;29;20065;-84
2023/10/14 02:06:16;;;;;;;6.78;4.35;;;;;;;;;;4846431;29;20385;-84
2023/10/14 02:08:45;;;;;;;12.32;5.53;;;;;;;;;;4861950;29;20053;-84
2023/10/14 02:11:20;;;;;;;9.27;4.78;;;;;;;;;;4843017;29;20065;-84
2023/10/14 02:13:51;;;;;;;7.72;5.05;;;;;;;;;;4867209;29;20045;-82
2023/10/14 02:16:24;;;;;;;9.88;5.38;;;;;;;;;;4866387;29;20062;-82
2023/10/14 02:18:51;;;;;;;8.98;4.43;;;;;;;;;;4850488;29;20072;-82
2023/10/14 02:21:22;;;;;;;9.13;4.55;;;;;;;;;;4852642;29;20057;-82
2023/10/14 02:23:50;;;;;;;9.23;5.50;;;;;;;;;;4853040;29;20053;-81
2023/10/14 02:26:24;;;;;;;9.63;5.27;;;;;;;;;;4850033;29;20061;-81
2023/10/14 02:28:54;;;;;;;7.13;4.70;;;;;;;;;;4869689;29;20052;-81
2023/10/14 02:31:29;;;;;;;8.40;4.97;;;;;;;;;;4852783;29;20064;-82
2023/10/14 02:33:59;;;;;;;10.43;5.53;;;;;;;;;;4861535;29;20069;-82
2023/10/14 02:36:29;;;;;;;10.35;6.47;;;;;;;;;;4852958;29;20068;-82
2023/10/14 02:38:58;;;;;;;13.25;5.30;;;;;;;;;;4867133;29;20419;-81
2023/10/14 02:41:29;;;;;;;15.52;5.50;;;;;;;;;;4859594;29;20049;-83
2023/10/14 02:44:18;;;;;;;11.82;5.13;;;;;;;;;;4864622;29;20050;-83
2023/10/14 02:46:46;;;;;;;10.88;5.55;;;;;;;;;;4851342;29;20057;-82
2023/10/14 02:49:15;;;;;;;22.88;5.80;;;;;;;;;;4864450;29;20057;-82
2023/10/14 02:51:44;;;;;;;9.48;4.95;;;;;;;;;;4865139;29;20046;-82
2023/10/14 02:54:26;;;;;;;9.75;5.70;;;;;;;;;;4868823;29;20058;-82
2023/10/14 02:56:58;;;;;;;9.55;6.07;;;;;;;;;;4852482;29;20050;-82
2023/10/14 02:59:39;;;;;;;16.90;6.75;;;;;;;;;;4876587;29;20057;-81
2023/10/14 03:02:16;;;;;;;13.95;5.72;;;;;;;;;;4876982;29;20057;-82
2023/10/14 03:04:54;;;;;;;8.82;4.82;;;;;;;;;;4853968;29;20064;-82
2023/10/14 03:07:27;;;;;;;11.98;5.22;;;;;;;;;;4875299;29;20071;-82
2023/10/14 03:09:58;;;;;;;8.07;5.32;;;;;;;;;;4860113;29;20061;-82
2023/10/14 03:12:26;;;;;;;5.45;4.50;;;;;;;;;;4857047;29;20057;-82
2023/10/14 03:14:53;;;;;;;14.90;5.93;;;;;;;;;;4868378;29;20061;-82
2023/10/14 03:17:25;;;;;;;9.32;5.30;;;;;;;;;;4866208;29;20527;-81
2023/10/14 03:19:54;;;;;;;8.57;5.03;;;;;;;;;;4854011;29;20058;-82
2023/10/14 03:22:26;;;;;;;11.77;5.80;;;;;;;;;;4869060;29;20049;-82
2023/10/14 03:25:02;;;;;;;10.32;5.13;;;;;;;;;;4856658;29;20064;-82
2023/10/14 03:27:34;;;;;;;10.27;5.68;;;;;;;;;;4857830;29;20076;-82
2023/10/14 03:30:06;;;;;;;14.55;5.82;;;;;;;;;;4876708;29;20690;-82
2023/10/14 03:32:36;;;;;;;7.55;3.60;;;;;;;;;;4869673;29;20061;-82
2023/10/14 03:35:11;;;;;;;6.45;4.43;;;;;;;;;;4858929;29;20068;-82
2023/10/14 03:37:40;;;;;;;5.70;3.92;;;;;;;;;;4865965;29;20076;-81
2023/10/14 03:43:05;;;;;;;5.50;3.08;;;;;;;;;;4869230;29;20049;-82
2023/10/14 03:45:45;;;;;;;4.68;4.13;;;;;;;;;;4871156;29;20041;-82
2023/10/14 03:48:14;;;;;;;6.55;3.90;;;;;;;;;;4868736;29;20524;-82
2023/10/14 03:50:42;;;;;;;6.90;5.15;;;;;;;;;;4860785;29;20060;-82
2023/10/14 03:53:12;;;;;;;4.43;3.33;;;;;;;;;;4858642;29;20531;-82
2023/10/14 03:55:39;;;;;;;6.38;3.70;;;;;;;;;;4866206;29;20061;-82
2023/10/14 03:58:09;;;;;;;8.57;3.53;;;;;;;;;;4866606;29;20045;-82
2023/10/14 04:00:39;;;;;;;4.35;3.72;;;;;;;;;;4867117;29;20058;-82
2023/10/14 04:03:12;;;;;;;6.25;3.58;;;;;;;;;;4849917;29;20058;-82
2023/10/14 04:05:52;;;;;;;5.25;3.65;;;;;;;;;;4866290;29;20052;-82
2023/10/14 04:08:25;;;;;;;8.52;3.10;;;;;;;;;;4872713;29;20064;-82
2023/10/14 04:11:09;;;;;;;6.95;3.30;;;;;;;;;;4867297;29;20054;-82
2023/10/14 04:13:42;;;;;;;5.18;3.47;;;;;;;;;;4874298;29;20068;-82
2023/10/14 04:16:12;;;;;;;6.10;3.63;;;;;;;;;;4866149;29;20041;-82
2023/10/14 04:18:43;;;;;;;9.27;3.60;;;;;;;;;;4866416;29;20064;-82
2023/10/14 04:21:26;;;;;;;5.88;3.60;;;;;;;;;;4855974;29;20072;-82
2023/10/14 04:24:09;;;;;;;6.38;3.58;;;;;;;;;;4852202;29;20061;-82
2023/10/14 04:26:41;;;;;;;8.18;5.00;;;;;;;;;;4871406;29;20057;-82
2023/10/14 04:29:34;;;;;;;5.15;3.70;;;;;;;;;;4857910;29;20072;-82
2023/10/14 04:32:14;;;;;;;7.07;4.47;;;;;;;;;;4854076;29;20056;-82
2023/10/14 04:34:44;;;;;;;6.70;3.92;;;;;;;;;;4867065;29;20053;-81
2023/10/14 04:37:16;;;;;;;7.70;3.78;;;;;;;;;;4870774;29;20056;-82
2023/10/14 04:39:44;;;;;;;8.13;4.57;;;;;;;;;;4869653;29;20065;-82
2023/10/14 04:42:35;;;;;;;6.22;4.13;;;;;;;;;;4866822;29;20045;-82
2023/10/14 04:45:13;;;;;;;5.22;3.67;;;;;;;;;;4862356;29;20065;-82
2023/10/14 04:47:44;;;;;;;6.25;3.47;;;;;;;;;;4848513;29;20057;-82
2023/10/14 04:50:21;;;;;;;7.60;3.88;;;;;;;;;;4860219;29;20060;-82
2023/10/14 04:52:49;;;;;;;5.03;3.17;;;;;;;;;;4871708;29;20060;-81
2023/10/14 04:55:25;;;;;;;6.30;4.13;;;;;;;;;;4868321;29;20061;-82
2023/10/14 05:00:41;;;;;;;5.78;3.67;;;;;;;;;;4854559;29;19927;-82
2023/10/14 05:03:13;;;;;;;3.05;2.50;;;;;;;;;;4859721;29;20056;-82
2023/10/14 05:05:43;;;;;;;3.67;2.35;;;;;;;;;;4866085;29;20539;-82
2023/10/14 05:08:15;;;;;;;7.10;3.60;;;;;;;;;;4862223;29;20068;-82
2023/10/14 05:10:44;;;;;;;6.32;3.08;;;;;;;;;;4847813;29;20057;-82
2023/10/14 05:13:13;;;;;;;4.80;3.00;;;;;;;;;;4866655;29;20038;-82
2023/10/14 05:15:44;;;;;;;6.25;3.00;;;;;;;;;;4849251;29;20053;-82
2023/10/14 05:18:16;;;;;;;9.35;3.30;;;;;;;;;;4851161;29;20064;-82
2023/10/14 05:21:02;;;;;;;4.28;3.05;;;;;;;;;;4849716;29;20056;-82
2023/10/14 05:23:31;;;;;;;11.02;3.35;;;;;;;;;;4870917;29;20056;-82
2023/10/14 05:25:59;;;;;;;5.03;3.42;;;;;;;;;;4868677;29;20065;-82
2023/10/14 05:28:31;;;;;;;5.30;2.67;;;;;;;;;;4871186;29;20046;-82
2023/10/14 05:31:02;;;;;;;4.43;2.78;;;;;;;;;;4854155;29;20168;-82
2023/10/14 05:33:31;;;;;;;6.07;2.50;;;;;;;;;;4866531;29;20053;-82
2023/10/14 05:36:01;;;;;;;2.83;2.20;;;;;;;;;;4849551;29;20421;-82
2023/10/14 05:38:28;;;;;;;4.15;3.13;;;;;;;;;;4863238;29;20054;-82
2023/10/14 05:40:59;;;;;;;7.32;3.20;;;;;;;;;;4864273;29;20053;-82
2023/10/14 05:43:27;;;;;;;3.65;2.60;;;;;;;;;;4848015;29;20058;-82
2023/10/14 05:45:56;;;;;;;5.20;2.60;;;;;;;;;;4847695;29;20060;-82
2023/10/14 05:48:30;;;;;;;6.35;3.13;;;;;;;;;;4846689;29;20080;-82
2023/10/14 05:51:02;;;;;;;4.30;2.97;;;;;;;;;;4866359;29;20049;-82
2023/10/14 05:53:31;;;;;;;5.10;2.90;;;;;;;;;;4846471;29;20054;-82
2023/10/14 07:47:12;;;;;;;4.22;1.90;;;;;;;;;;5263527;23;20515;-84
2023/10/14 07:49:39;;;;;;;2.80;1.63;;;;;;;;;;4880642;29;20061;-83
2023/10/14 07:52:14;;;;;;;1.83;1.30;;;;;;;;;;4899233;29;20056;-83
2023/10/14 07:54:42;;;;;;;2.83;1.98;;;;;;;;;;4883852;29;20049;-83
2023/10/14 07:57:12;;;;;;;3.63;1.77;;;;;;;;;;4882816;29;20061;-82
2023/10/14 07:59:41;;;;;;;7.15;2.00;;;;;;;;;;4862336;29;20056;-82
2023/10/14 08:02:16;;;;;;;2.45;2.05;;;;;;;;;;4877616;29;20056;-84
2023/10/14 08:04:46;;;;;;;6.40;1.42;;;;;;;;;;4863801;29;20052;-83
2023/10/14 08:07:14;;;;;;;3.63;1.67;;;;;;;;;;4868801;29;20492;-83
2023/10/14 08:09:41;;;;;;;1.38;1.00;;;;;;;;;;4861688;29;20049;-83
2023/10/14 08:12:14;;;;;;;2.35;2.15;;;;;;;;;;4874086;29;20068;-83
2023/10/14 08:14:44;;;;;;;1.70;1.20;;;;;;;;;;4893109;29;20048;-83
2023/10/14 08:17:15;;;;;;;5.22;1.52;;;;;;;;;;4857849;29;20063;-83
2023/10/14 08:19:42;;;;;;;3.42;1.95;;;;;;;;;;4891229;29;20060;-83
2023/10/14 08:22:14;;;;;;;1.98;1.63;;;;;;;;;;4878049;29;20056;-83
2023/10/14 08:24:41;;;;;;;1.58;1.45;;;;;;;;;;4874536;29;20064;-83
2023/10/14 08:27:12;;;;;;;2.83;2.45;;;;;;;;;;4877302;29;20053;-83
2023/10/14 08:29:41;;;;;;;2.05;1.55;;;;;;;;;;4876946;29;20504;-83
2023/10/14 08:32:11;;;;;;;3.85;1.42;;;;;;;;;;4891770;29;20057;-83
2023/10/14 08:34:42;;;;;;;2.30;1.42;;;;;;;;;;4860926;29;20057;-83
2023/10/14 08:37:14;;;;;;;2.08;1.17;;;;;;;;;;4861821;29;20052;-83
2023/10/14 08:39:44;;;;;;;0.65;0.50;;;;;;;;;;4860268;29;20060;-83
2023/10/14 08:42:11;;;;;;;4.22;0.60;;;;;;;;;;4875468;29;20053;-83
2023/10/14 08:44:43;;;;;;;1.65;0.88;;;;;;;;;;4876773;29;20045;-83
2023/10/14 08:47:14;;;;;;;1.98;0.70;;;;;;;;;;4875583;29;20057;-83
2023/10/14 08:49:43;;;;;;;1.00;0.57;;;;;;;;;;4860298;29;20048;-83
2023/10/14 08:52:17;;;;;;;1.75;0.60;;;;;;;;;;4875496;29;20064;-83
2023/10/14 08:54:48;;;;;;;0.30;0.30;;;;;;;;;;4888108;29;20043;-83
2023/10/14 08:57:16;;;;;;;0.30;0.28;;;;;;;;;;4891745;29;20053;-83
2023/10/14 08:59:49;;;;;;;1.38;0.55;;;;;;;;;;4862305;29;20053;-84
2023/10/14 09:02:16;;;;;;;1.80;0.22;;;;;;;;;;4857579;29;20053;-84
2023/10/14 09:04:45;;;;;;;0.30;0.30;;;;;;;;;;4859855;29;20524;-84
2023/10/14 09:07:16;;;;;;;0.45;0.40;;;;;;;;;;4875329;29;20056;-84
2023/10/14 09:09:46;;;;;;;0.57;0.22;;;;;;;;;;4869231;29;20071;-84
2023/10/14 09:12:13;;;;;;;0.70;0.40;;;;;;;;;;4876008;29;20057;-83
2023/10/14 09:14:43;;;;;;;1.92;0.30;;;;;;;;;;4874832;29;20397;-83
2023/10/14 09:17:16;;;;;;;0.28;0.22;;;;;;;;;;4875309;29;20056;-84
2023/10/14 09:19:48;;;;;;;0.22;0.22;;;;;;;;;;4875437;29;20052;-84
2023/10/14 09:22:22;;;;;;;1.80;0.60;;;;;;;;;;4875862;29;20053;-84
2023/10/14 09:24:52;;;;;;;0.88;0.60;;;;;;;;;;4874510;29;20503;-84
2023/10/14 09:27:20;;;;;;;0.32;0.30;;;;;;;;;;4877080;29;20052;-84
2023/10/14 09:29:50;;;;;;;0.20;0.20;;;;;;;;;;4886741;29;20053;-84
2023/10/14 09:32:19;;;;;;;0.40;0.30;;;;;;;;;;4860209;29;20407;-84
2023/10/14 09:34:51;;;;;;;0.88;0.73;;;;;;;;;;4878726;29;20419;-84
2023/10/14 09:37:21;;;;;;;1.70;0.77;;;;;;;;;;4892959;29;20500;-84
2023/10/14 09:39:57;;;;;;;0.73;0.60;;;;;;;;;;4878921;29;20057;-84
2023/10/14 09:42:26;;;;;;;0.73;0.40;;;;;;;;;;4897360;29;20052;-84
2023/10/14 09:44:53;;;;;;;0.40;0.20;;;;;;;;;;4868763;29;20068;-84
2023/10/14 09:47:26;;;;;;;0.20;0.20;;;;;;;;;;4877032;29;20049;-84
2023/10/14 09:49:58;;;;;;;0.20;0.20;;;;;;;;;;4858336;29;20500;-84
2023/10/14 09:52:30;;;;;;;0.28;0.28;;;;;;;;;;4874292;29;20049;-84
2023/10/14 09:54:57;;;;;;;0.63;0.30;;;;;;;;;;4875701;29;20060;-84
2023/10/14 09:57:28;;;;;;;0.20;0.20;;;;;;;;;;4875409;29;20049;-84
2023/10/14 10:00:00;;;;;;;;;;;;;;;;;;4874745;29;20056;-83
2023/10/14 10:02:27;;;;;;;0.38;0.38;;;;;;;;;;4874831;29;19938;-83
2023/10/14 10:04:55;;;;;;;0.75;0.55;;;;;;;;;;4859567;29;20049;-83
2023/10/14 10:07:40;;;;;;;0.50;0.50;;;;;;;;;;4859699;29;20064;-83
2023/10/14 10:10:17;;;;;;;1.15;0.57;;;;;;;;;;4874033;29;20511;-83
2023/10/14 10:12:53;;;;;;;0.52;0.40;;;;;;;;;;4867937;29;20064;-83
2023/10/14 10:15:25;;;;;;;0.40;0.40;;;;;;;;;;4873988;29;20048;-83
2023/10/14 10:18:25;;;;;;;0.50;0.50;;;;;;;;;;4880135;23;20049;-84
2023/10/14 10:20:56;;;;;;;0.47;0.45;;;;;;;;;;4861947;29;20064;-83
2023/10/14 10:23:44;;;;;;;0.32;0.32;;;;;;;;;;4866275;29;20515;-84
2023/10/14 10:26:20;;;;;;;0.60;0.40;;;;;;;;;;4876097;29;20515;-83
2023/10/14 10:28:59;;;;;;;1.85;0.40;;;;;;;;;;4861187;29;20053;-84
2023/10/14 10:31:32;;;;;;;1.00;0.50;;;;;;;;;;4859498;29;20535;-84
2023/10/14 10:34:03;;;;;;;0.55;0.50;;;;;;;;;;4889907;29;20413;-84
2023/10/14 10:36:38;;;;;;;0.65;0.52;;;;;;;;;;4858862;29;20045;-84
2023/10/14 10:39:16;;;;;;;0.70;0.70;;;;;;;;;;4859484;29;20061;-84
2023/10/14 10:41:50;;;;;;;3.40;0.85;;;;;;;;;;4878297;29;20540;-84
2023/10/14 10:44:18;;;;;;;1.17;0.57;;;;;;;;;;4883939;29;20049;-84
2023/10/14 10:46:51;;;;;;;4.85;0.75;;;;;;;;;;4872286;29;20051;-84
2023/10/14 10:49:56;;;;;;;1.40;0.68;;;;;;;;;;4861113;29;20058;-84
2023/10/14 10:52:25;;;;;;;0.80;0.80;;;;;;;;;;4851870;29;20064;-84
2023/10/14 10:54:54;;;;;;;2.10;0.60;;;;;;;;;;4853427;29;20404;-84
2023/10/14 10:57:21;;;;;;;2.25;0.75;;;;;;;;;;4857409;29;20045;-84
2023/10/14 10:59:51;;;;;;;1.00;0.63;;;;;;;;;;4859378;29;20064;-84
2023/10/14 11:02:21;;;;;;;2.55;1.20;;;;;;;;;;4858259;29;20397;-84
2023/10/14 11:04:51;;;;;;;1.60;0.73;;;;;;;;;;4874054;29;20394;-85
2023/10/14 11:07:22;;;;;;;0.98;0.75;;;;;;;;;;4877425;29;20054;-84
2023/10/14 11:09:54;;;;;;;1.00;0.73;;;;;;;;;;4862730;29;20394;-84
2023/10/14 11:12:21;;;;;;;4.60;1.10;;;;;;;;;;4874332;29;20413;-84
2023/10/14 11:14:49;;;;;;;2.15;1.05;;;;;;;;;;4842910;29;20050;-84
2023/10/14 11:17:16;;;;;;;1.75;1.05;;;;;;;;;;4863060;29;20428;-84
2023/10/14 11:19:46;;;;;;;2.22;1.17;;;;;;;;;;4856418;29;20065;-84
2023/10/14 11:22:14;;;;;;;2.95;1.30;;;;;;;;;;4856510;29;20068;-84
2023/10/14 11:24:43;;;;;;;1.70;1.17;;;;;;;;;;4857374;29;20065;-84
2023/10/14 11:27:15;;;;;;;3.33;1.52;;;;;;;;;;4871871;29;20054;-84
2023/10/14 11:29:42;;;;;;;2.15;0.98;;;;;;;;;;4875258;29;20053;-84
2023/10/14 11:32:16;;;;;;;1.00;0.80;;;;;;;;;;4862310;29;20136;-84
2023/10/14 11:34:52;;;;;;;1.90;1.52;;;;;;;;;;4852232;29;20057;-84
2023/10/14 11:37:19;;;;;;;2.33;1.20;;;;;;;;;;4879943;23;20052;-84
2023/10/14 11:39:48;;;;;;;3.67;2.65;;;;;;;;;;4901830;29;20490;-84
2023/10/14 11:42:17;;;;;;;3.80;1.17;;;;;;;;;;4892179;29;20061;-83
2023/10/14 11:44:50;;;;;;;5.22;1.05;;;;;;;;;;4895862;29;20400;-84
2023/10/14 11:47:18;;;;;;;2.70;1.52;;;;;;;;;;4892436;29;20060;-85
2023/10/14 11:49:47;;;;;;;3.33;1.23;;;;;;;;;;4879265;29;20057;-85
2023/10/14 11:52:15;;;;;;;3.58;1.63;;;;;;;;;;4865076;29;20053;-85
2023/10/14 11:54:42;;;;;;;1.80;1.20;;;;;;;;;;4874732;29;20427;-86
2023/10/14 11:57:15;;;;;;;2.28;1.48;;;;;;;;;;4880530;29;20068;-85
2023/10/14 11:59:43;;;;;;;1.92;1.20;;;;;;;;;;4874798;29;20060;-85
2023/10/14 12:02:13;;;;;;;2.05;1.15;;;;;;;;;;4882041;29;20087;-85
2023/10/14 12:04:40;;;;;;;3.38;1.25;;;;;;;;;;4876254;29;20065;-85
2023/10/14 12:07:12;;;;;;;2.83;1.27;;;;;;;;;;4877695;29;20060;-85
2023/10/14 12:09:41;;;;;;;5.13;1.10;;;;;;;;;;4865268;29;20048;-85
2023/10/14 12:12:08;;;;;;;2.22;1.20;;;;;;;;;;4864782;29;20064;-85
2023/10/14 12:14:38;;;;;;;6.07;1.70;;;;;;;;;;4874258;29;20061;-85
2023/10/14 12:17:07;;;;;;;1.00;0.85;;;;;;;;;;4872447;29;20053;-85
2023/10/14 12:19:37;;;;;;;5.50;1.63;;;;;;;;;;4872680;29;20053;-85
2023/10/14 12:22:04;;;;;;;2.35;1.35;;;;;;;;;;4876656;29;20064;-85
2023/10/14 12:24:37;;;;;;;4.55;1.35;;;;;;;;;;4876031;29;20049;-85
2023/10/14 12:27:09;;;;;;;2.03;1.55;;;;;;;;;;4882957;29;20068;-85
2023/10/14 12:29:39;;;;;;;5.32;3.28;;;;;;;;;;4878334;29;20056;-84
2023/10/14 12:32:15;;;;;;;3.80;1.58;;;;;;;;;;4873045;29;20064;-85
2023/10/14 12:34:44;;;;;;;3.92;1.27;;;;;;;;;;4877547;29;20388;-86
2023/10/14 12:37:17;;;;;;;2.78;1.30;;;;;;;;;;4875231;29;20052;-85
2023/10/14 12:39:53;;;;;;;2.03;1.25;;;;;;;;;;4868954;29;20060;-84
2023/10/14 12:42:44;;;;;;;3.28;1.50;;;;;;;;;;4887279;29;20064;-83
2023/10/14 12:45:22;;;;;;;2.08;1.88;;;;;;;;;;4868499;29;20053;-84
2023/10/14 12:47:55;;;;;;;2.30;1.52;;;;;;;;;;4873790;29;20057;-84
2023/10/14 12:50:27;;;;;;;3.60;1.70;;;;;;;;;;5585264;23;20388;-80
2023/10/14 12:52:59;;;;;;;1.30;1.00;;;;;;;;;;4850252;29;20061;-80
2023/10/14 12:55:27;;;;;;;2.53;1.40;;;;;;;;;;4890610;29;20045;-80
2023/10/14 12:57:55;;;;;;;3.05;1.55;;;;;;;;;;4887416;29;20049;-81
2023/10/14 13:00:29;;;;;;;2.20;1.50;;;;;;;;;;4851773;29;20048;-81
2023/10/14 13:03:01;;;;;;;2.53;1.65;;;;;;;;;;4849952;29;20065;-81
2023/10/14 13:05:28;;;;;;;2.38;1.40;;;;;;;;;;4871338;23;20057;-82
2023/10/14 13:07:58;;;;;;;3.63;1.20;;;;;;;;;;4857232;29;20049;-82
2023/10/14 13:10:28;;;;;;;4.18;1.45;;;;;;;;;;4850790;29;20054;-82
2023/10/14 13:12:58;;;;;;;1.58;1.10;;;;;;;;;;4838393;29;20053;-82
2023/10/14 13:15:29;;;;;;;3.05;1.83;;;;;;;;;;4830208;29;20070;-81
2023/10/14 13:18:01;;;;;;;1.83;1.30;;;;;;;;;;4837737;29;20046;-81
2023/10/14 13:20:31;;;;;;;5.68;1.58;;;;;;;;;;4857521;29;20034;-81
2023/10/14 13:23:03;;;;;;;2.58;1.13;;;;;;;;;;4852433;29;20564;-80
2023/10/14 13:25:36;;;;;;;3.53;1.40;;;;;;;;;;4851442;29;20056;-80
2023/10/14 13:28:08;;;;;;;2.47;1.10;;;;;;;;;;4852631;29;20054;-80
2023/10/14 13:30:45;;;;;;;2.22;1.08;;;;;;;;;;4851699;29;20064;-81
2023/10/14 13:33:16;;;;;;;2.97;1.92;;;;;;;;;;4837687;29;20045;-81
2023/10/14 13:35:46;;;;;;;1.95;1.15;;;;;;;;;;4833547;29;20061;-81
2023/10/14 13:38:15;;;;;;;2.03;1.10;;;;;;;;;;4866995;29;20056;-80
2023/10/14 13:40:43;;;;;;;3.85;1.10;;;;;;;;;;4854239;29;20041;-80
2023/10/14 13:43:14;;;;;;;2.65;1.00;;;;;;;;;;4834537;29;20056;-80
2023/10/14 13:45:45;;;;;;;2.08;1.40;;;;;;;;;;4855565;29;20053;-80
2023/10/14 13:48:14;;;;;;;2.78;1.02;;;;;;;;;;4838575;29;20054;-81
2023/10/14 13:50:42;;;;;;;8.32;2.00;;;;;;;;;;4838837;29;20046;-81
2023/10/14 13:53:17;;;;;;;2.75;1.38;;;;;;;;;;4854406;29;20052;-81
2023/10/14 13:55:44;;;;;;;1.30;0.90;;;;;;;;;;4838596;29;20064;-81
2023/10/14 13:58:14;;;;;;;2.10;1.23;;;;;;;;;;4839295;29;20050;-80
2023/10/14 14:00:44;;;;;;;2.75;1.15;;;;;;;;;;4836583;29;20054;-80
2023/10/14 14:03:12;;;;;;;3.20;1.27;;;;;;;;;;4853349;29;20068;-80
2023/10/14 14:05:42;;;;;;;2.90;0.90;;;;;;;;;;4836980;29;20065;-80
2023/10/14 14:08:10;;;;;;;5.95;1.08;;;;;;;;;;4848144;29;20065;-80
2023/10/14 14:10:42;;;;;;;1.13;0.77;;;;;;;;;;4853197;29;20247;-80
2023/10/14 14:13:16;;;;;;;2.42;1.20;;;;;;;;;;4825948;29;20065;-80
2023/10/14 14:15:44;;;;;;;3.15;1.25;;;;;;;;;;4837291;29;20054;-80
2023/10/14 14:18:13;;;;;;;2.60;1.10;;;;;;;;;;4852700;29;20066;-80
2023/10/14 14:20:45;;;;;;;3.25;1.38;;;;;;;;;;4837353;29;20069;-80
2023/10/14 14:23:13;;;;;;;2.55;1.08;;;;;;;;;;4853453;29;20065;-80
2023/10/14 14:25:41;;;;;;;6.45;1.23;;;;;;;;;;4856674;29;20065;-80
2023/10/14 14:28:09;;;;;;;1.80;1.08;;;;;;;;;;4850363;29;20072;-81
2023/10/14 14:30:36;;;;;;;4.78;1.20;;;;;;;;;;4853088;29;20050;-81
2023/10/14 14:33:05;;;;;;;2.70;1.00;;;;;;;;;;4837750;29;20064;-81
2023/10/14 14:35:35;;;;;;;2.38;1.10;;;;;;;;;;4851897;29;20053;-80
2023/10/14 14:38:05;;;;;;;6.50;1.58;;;;;;;;;;4851482;29;20062;-80
2023/10/14 14:40:33;;;;;;;3.08;1.40;;;;;;;;;;4827765;29;20073;-80
2023/10/14 14:43:02;;;;;;;2.65;1.08;;;;;;;;;;4852143;29;20065;-80
2023/10/14 14:45:35;;;;;;;3.03;1.63;;;;;;;;;;4838634;29;20046;-81
2023/10/14 14:48:02;;;;;;;2.28;1.65;;;;;;;;;;4832662;29;20046;-81
2023/10/14 14:50:34;;;;;;;1.55;0.95;;;;;;;;;;4853551;29;20542;-81
2023/10/14 14:53:06;;;;;;;1.25;0.80;;;;;;;;;;4852043;29;20065;-81
2023/10/14 14:55:42;;;;;;;2.80;1.65;;;;;;;;;;4855535;29;20069;-81
2023/10/14 14:58:14;;;;;;;2.17;0.85;;;;;;;;;;4856200;29;20058;-80
2023/10/14 15:00:42;;;;;;;1.20;1.00;;;;;;;;;;4852846;29;20050;-81
2023/10/14 15:03:12;;;;;;;2.08;1.63;;;;;;;;;;4853769;29;20046;-81
2023/10/14 15:05:42;;;;;;;2.05;1.23;;;;;;;;;;4854012;29;20054;-81
2023/10/14 15:08:16;;;;;;;2.17;0.98;;;;;;;;;;4853437;29;20050;-80
2023/10/14 15:10:44;;;;;;;9.02;1.15;;;;;;;;;;4852229;29;20054;-81
2023/10/14 15:13:12;;;;;;;6.00;2.08;;;;;;;;;;4841325;29;20058;-80
2023/10/14 15:15:41;;;;;;;1.65;0.70;;;;;;;;;;4855857;29;20060;-80
2023/10/14 15:18:12;;;;;;;2.72;0.73;;;;;;;;;;4840689;29;20065;-80
2023/10/14 15:20:45;;;;;;;2.45;1.05;;;;;;;;;;4840371;29;20061;-80
2023/10/14 15:23:16;;;;;;;6.65;2.40;;;;;;;;;;4848998;29;20068;-80
2023/10/14 15:25:44;;;;;;;5.22;1.35;;;;;;;;;;4855498;29;20060;-80
2023/10/14 15:28:12;;;;;;;1.23;0.88;;;;;;;;;;4855169;29;20488;-80
2023/10/14 15:30:42;;;;;;;1.60;1.00;;;;;;;;;;4838871;29;20042;-80
2023/10/14 15:33:11;;;;;;;1.65;1.00;;;;;;;;;;4854339;29;20076;-80
2023/10/14 15:35:41;;;;;;;4.82;1.35;;;;;;;;;;4854650;29;20049;-80
2023/10/14 15:38:13;;;;;;;1.83;1.25;;;;;;;;;;4877792;29;20060;-80
2023/10/14 15:40:51;;;;;;;2.30;1.52;;;;;;;;;;4836621;29;20057;-80
2023/10/14 15:43:23;;;;;;;1.60;0.85;;;;;;;;;;4834000;29;20057;-80
2023/10/14 15:45:58;;;;;;;1.48;1.15;;;;;;;;;;4872957;29;20061;-80
2023/10/14 15:48:25;;;;;;;4.43;1.17;;;;;;;;;;4853442;29;20045;-80
2023/10/14 15:50:53;;;;;;;2.95;1.13;;;;;;;;;;4837829;29;20049;-80
2023/10/14 15:53:20;;;;;;;4.38;1.17;;;;;;;;;;4852554;29;20053;-80
2023/10/14 15:55:49;;;;;;;1.85;1.27;;;;;;;;;;4852556;29;20050;-80
2023/10/14 15:58:16;;;;;;;3.22;1.20;;;;;;;;;;4839817;29;20412;-80
2023/10/14 16:00:48;;;;;;;2.40;1.08;;;;;;;;;;4867861;29;20046;-80
2023/10/14 16:03:16;;;;;;;4.57;1.88;;;;;;;;;;4851656;29;20054;-81
2023/10/14 16:05:44;;;;;;;4.38;2.70;;;;;;;;;;4853145;29;20046;-80
2023/10/14 16:08:14;;;;;;;5.13;2.55;;;;;;;;;;4837408;29;20062;-80
2023/10/14 16:10:45;;;;;;;7.25;1.65;;;;;;;;;;4849481;29;20058;-80
2023/10/14 16:13:19;;;;;;;;;;;;;;;;;;4848252;29;20061;-80
2023/10/14 16:15:47;;;;;;;1.67;1.15;;;;;;;;;;4852044;29;19936;-80
2023/10/14 16:18:17;;;;;;;4.22;1.63;;;;;;;;;;4849521;29;20511;-80
2023/10/14 16:20:49;;;;;;;3.22;1.42;;;;;;;;;;4835566;29;20058;-80
2023/10/14 16:23:17;;;;;;;1.52;1.33;;;;;;;;;;4834782;29;20061;-80
2023/10/14 16:25:47;;;;;;;3.33;1.13;;;;;;;;;;4867611;29;20050;-80
2023/10/14 16:28:15;;;;;;;3.75;1.30;;;;;;;;;;4855241;29;20564;-80
2023/10/14 16:30:44;;;;;;;1.85;1.02;;;;;;;;;;4835148;29;20046;-80
2023/10/14 16:33:11;;;;;;;6.60;1.70;;;;;;;;;;4846801;29;20081;-80
2023/10/14 16:35:41;;;;;;;2.45;1.60;;;;;;;;;;4839447;29;20058;-80
2023/10/14 16:38:09;;;;;;;2.15;1.17;;;;;;;;;;4851960;29;20061;-80
2023/10/14 16:40:37;;;;;;;4.80;1.50;;;;;;;;;;4850926;29;20057;-80
2023/10/14 16:43:08;;;;;;;2.45;1.73;;;;;;;;;;4850189;29;20072;-80
2023/10/14 16:45:38;;;;;;;2.58;1.58;;;;;;;;;;4848627;29;20124;-80
2023/10/14 16:48:11;;;;;;;2.45;1.70;;;;;;;;;;4848568;29;20050;-80
2023/10/14 16:50:43;;;;;;;5.13;1.27;;;;;;;;;;4844453;29;20046;-80
2023/10/14 16:53:11;;;;;;;3.83;2.25;;;;;;;;;;4832012;29;20058;-79
2023/10/14 16:55:39;;;;;;;3.47;1.40;;;;;;;;;;4849454;29;20065;-79
2023/10/14 16:58:10;;;;;;;1.88;1.65;;;;;;;;;;4851323;29;20061;-79
2023/10/14 17:00:40;;;;;;;2.20;1.42;;;;;;;;;;4830389;29;20054;-79
2023/10/14 17:03:09;;;;;;;2.20;1.50;;;;;;;;;;4833497;29;20053;-79
2023/10/14 17:05:39;;;;;;;4.13;2.33;;;;;;;;;;4833179;29;20061;-80